Time;durP1;ratioP1;P1;durP2;ratioP2;P2;SDS_P1;SDS_P2;PMS_P1;PMS_P2;Temp;Humidity;BMP_temperature;BMP_pressure;BME280_temperature;BME280_humidity;BME280_pressure;Samples;Min_cycle;Max_cycle;Signal;HPM_P1;HPM_P2
2023/06/25 00:00:05;;;;;;;5.05;3.90;;;;;;;20.59;59.26;99842.16;337282;28;18130;-60
2023/06/25 00:00:18;;;;;;;5.00;3.72;;;;;;;20.58;59.13;99843.06;339251;28;5171;-61
2023/06/25 00:00:30;;;;;;;5.43;3.83;;;;;;;20.61;59.11;99842.91;337761;28;18061;-60
2023/06/25 00:00:44;;;;;;;4.68;3.83;;;;;;;20.62;59.08;99836.66;340046;28;5632;-60
2023/06/25 00:00:56;;;;;;;4.70;3.80;;;;;;;20.65;59.54;99836.44;337917;28;18107;-61
2023/06/25 00:01:08;;;;;;;6.20;3.88;;;;;;;20.67;59.35;99845.09;336513;28;18259;-60
2023/06/25 00:01:20;;;;;;;6.43;3.80;;;;;;;20.68;59.74;99838.84;338909;28;5438;-60
2023/06/25 00:01:32;;;;;;;6.22;3.63;;;;;;;20.69;59.27;99843.19;338087;28;5401;-61
2023/06/25 00:01:44;;;;;;;5.45;3.65;;;;;;;20.72;59.50;99832.41;339825;28;5612;-61
2023/06/25 00:01:56;;;;;;;5.60;3.75;;;;;;;20.74;59.12;99840.22;339907;28;5197;-60
2023/06/25 00:02:08;;;;;;;5.22;3.60;;;;;;;20.74;59.39;99840.22;336718;28;18609;-60
2023/06/25 00:02:20;;;;;;;4.65;3.53;;;;;;;20.75;59.24;99842.75;339500;28;4663;-60
2023/06/25 00:02:32;;;;;;;5.18;3.53;;;;;;;20.75;59.35;99840.13;336585;28;11298;-60
2023/06/25 00:02:45;;;;;;;5.55;3.67;;;;;;;20.75;59.36;99837.47;338734;28;4750;-60
2023/06/25 00:02:57;;;;;;;5.50;3.67;;;;;;;20.73;59.75;99831.47;339977;28;5217;-60
2023/06/25 00:03:09;;;;;;;5.63;3.60;;;;;;;20.73;59.44;99836.75;337685;28;18182;-61
2023/06/25 00:03:21;;;;;;;4.90;3.60;;;;;;;20.75;59.56;99840.13;340125;28;5408;-60
2023/06/25 00:03:33;;;;;;;4.88;3.63;;;;;;;20.77;59.46;99842.66;335596;28;18302;-60
2023/06/25 00:03:45;;;;;;;5.70;3.83;;;;;;;20.76;59.63;99838.31;338588;28;5521;-60
2023/06/25 00:03:57;;;;;;;5.78;3.72;;;;;;;20.76;59.30;99833.03;339391;28;5415;-61
2023/06/25 00:04:10;;;;;;;6.45;3.72;;;;;;;20.77;59.26;99834.72;338372;28;17484;-60
2023/06/25 00:04:22;;;;;;;4.95;3.53;;;;;;;20.74;60.08;99838.44;339762;28;5227;-60
2023/06/25 00:04:34;;;;;;;4.30;3.72;;;;;;;20.73;59.47;99835.91;337107;28;17979;-60
2023/06/25 00:04:46;;;;;;;4.38;3.80;;;;;;;20.71;60.05;99833.38;338017;28;4683;-60
2023/06/25 00:04:58;;;;;;;4.40;3.70;;;;;;;20.71;60.04;99833.38;335825;28;18612;-61
2023/06/25 00:05:10;;;;;;;5.32;3.80;;;;;;;20.70;60.04;99834.31;338622;28;4810;-60
2023/06/25 00:05:22;;;;;;;5.38;3.70;;;;;;;20.71;59.85;99833.38;338572;28;5034;-61
2023/06/25 00:05:34;;;;;;;6.22;3.78;;;;;;;20.72;60.04;99835.03;335662;28;18137;-61
2023/06/25 00:05:46;;;;;;;8.55;3.80;;;;;;;20.69;59.92;99835.28;338852;28;5246;-60
2023/06/25 00:05:58;;;;;;;8.80;3.90;;;;;;;20.70;59.80;99834.31;336359;28;18036;-61
2023/06/25 00:06:10;;;;;;;5.85;3.72;;;;;;;20.70;59.54;99836.94;339094;28;4668;-60
2023/06/25 00:06:22;;;;;;;5.63;3.70;;;;;;;20.70;59.47;99834.31;337352;28;4732;-60
2023/06/25 00:06:34;;;;;;;5.97;3.78;;;;;;;20.71;59.79;99836.00;336332;28;18129;-60
2023/06/25 00:06:46;;;;;;;5.63;3.83;;;;;;;20.68;59.60;99830.94;338612;28;5545;-60
2023/06/25 00:06:59;;;;;;;5.80;3.75;;;;;;;20.68;59.46;99830.94;336405;28;18069;-60
2023/06/25 00:07:11;;;;;;;5.22;3.70;;;;;;;20.67;59.41;99834.53;339026;28;5188;-60
2023/06/25 00:07:23;;;;;;;6.03;3.70;;;;;;;20.66;59.28;99832.00;336033;28;4732;-61
2023/06/25 00:07:35;;;;;;;5.70;3.70;;;;;;;20.64;59.79;99839.19;339092;28;4572;-60
2023/06/25 00:07:47;;;;;;;6.13;3.80;;;;;;;20.66;59.36;99827.56;338466;28;4777;-61
2023/06/25 00:07:59;;;;;;;6.45;3.92;;;;;;;20.65;59.57;99831.16;339135;28;17388;-61
2023/06/25 00:08:11;;;;;;;6.13;4.00;;;;;;;20.63;59.74;99827.78;339897;28;4527;-61
2023/06/25 00:08:23;;;;;;;7.57;4.10;;;;;;;20.63;59.41;99833.06;337341;28;18578;-60
2023/06/25 00:08:35;;;;;;;6.22;3.85;;;;;;;20.53;59.42;99832.00;339833;28;4808;-61
2023/06/25 00:08:48;;;;;;;5.40;3.67;;;;;;;20.54;59.76;99833.69;338023;28;11801;-61
2023/06/25 00:09:00;;;;;;;4.15;3.60;;;;;;;20.56;59.40;99831.78;339333;28;4682;-60
2023/06/25 00:09:13;;;;;;;4.45;3.65;;;;;;;20.57;59.34;99828.19;337574;28;5168;-61
2023/06/25 00:09:25;;;;;;;4.93;3.80;;;;;;;20.58;59.40;99832.50;336769;28;17580;-60
2023/06/25 00:09:37;;;;;;;5.57;3.88;;;;;;;20.56;59.53;99834.41;337785;28;5230;-60
2023/06/25 00:09:53;;;;;;;5.40;3.78;;;;;;;20.56;59.81;99829.13;335504;28;18344;-60
2023/06/25 00:10:06;;;;;;;4.85;3.65;;;;;;;20.57;59.87;99828.19;336338;28;17997;-61
2023/06/25 00:10:18;;;;;;;4.82;3.67;;;;;;;20.58;59.66;99835.16;336755;28;4653;-61
2023/06/25 00:10:30;;;;;;;4.95;3.75;;;;;;;20.57;59.38;99830.84;338748;28;4997;-60
2023/06/25 00:10:42;;;;;;;4.82;3.80;;;;;;;20.55;59.15;99835.38;336473;28;5212;-61
2023/06/25 00:10:54;;;;;;;4.75;3.80;;;;;;;20.56;59.59;99826.50;339014;28;5167;-60
2023/06/25 00:11:06;;;;;;;4.93;3.65;;;;;;;20.58;59.82;99835.16;339016;28;4665;-60
2023/06/25 00:11:19;;;;;;;5.63;3.63;;;;;;;20.58;59.83;99829.88;336959;28;18330;-61
2023/06/25 00:11:31;;;;;;;7.63;3.63;;;;;;;20.57;59.66;99833.47;340303;28;5388;-60
2023/06/25 00:11:43;;;;;;;8.07;3.60;;;;;;;20.58;59.52;99835.16;336881;28;12541;-60
2023/06/25 00:11:55;;;;;;;5.22;3.60;;;;;;;20.57;59.58;99837.94;338947;28;4714;-61
2023/06/25 00:12:08;;;;;;;5.85;3.67;;;;;;;20.52;59.19;99828.53;338401;28;4684;-60
2023/06/25 00:12:20;;;;;;;5.38;3.55;;;;;;;20.50;59.28;99829.56;336672;28;18269;-60
2023/06/25 00:12:33;;;;;;;5.25;3.58;;;;;;;20.52;59.29;99825.03;337341;28;12290;-61
2023/06/25 00:12:45;;;;;;;5.25;3.55;;;;;;;20.51;59.01;99833.91;339396;28;4582;-60
2023/06/25 00:12:57;;;;;;;6.70;3.83;;;;;;;20.50;59.08;99835.72;337972;28;5202;-60
2023/06/25 00:13:09;;;;;;;6.85;4.10;;;;;;;20.52;58.93;99835.59;337633;28;18458;-61
2023/06/25 00:13:24;;;;;;;5.22;3.88;;;;;;;20.53;58.76;99834.66;336547;28;18260;-61
2023/06/25 00:13:36;;;;;;;4.28;3.58;;;;;;;20.52;59.11;99838.22;338807;28;5535;-60
2023/06/25 00:13:48;;;;;;;4.28;3.60;;;;;;;20.52;59.14;99833.81;336163;28;18533;-61
2023/06/25 00:14:01;;;;;;;4.88;3.70;;;;;;;20.55;59.31;99830.09;338601;28;4813;-61
2023/06/25 00:14:13;;;;;;;5.55;3.58;;;;;;;20.57;59.27;99828.19;337085;28;18182;-60
2023/06/25 00:14:25;;;;;;;6.10;3.53;;;;;;;20.58;59.27;99837.78;338971;28;4674;-61
2023/06/25 00:14:37;;;;;;;6.05;3.88;;;;;;;20.60;58.81;99828.00;336822;28;5217;-61
2023/06/25 00:14:49;;;;;;;4.70;3.80;;;;;;;20.61;59.18;99829.69;337334;28;4707;-61
2023/06/25 00:15:02;;;;;;;4.10;3.50;;;;;;;20.64;59.26;99832.09;337564;28;4606;-60
2023/06/25 00:15:14;;;;;;;4.25;3.35;;;;;;;20.64;58.68;99834.75;334936;28;18184;-60
2023/06/25 00:15:27;;;;;;;5.28;3.75;;;;;;;20.60;58.76;99833.28;337801;28;4703;-60
2023/06/25 00:15:39;;;;;;;6.05;4.07;;;;;;;20.61;59.05;99834.16;336506;28;18342;-60
2023/06/25 00:15:51;;;;;;;5.18;3.72;;;;;;;20.62;59.22;99836.66;340234;28;4776;-61
2023/06/25 00:16:03;;;;;;;5.10;3.70;;;;;;;20.60;59.13;99833.28;336517;28;16557;-60
2023/06/25 00:16:15;;;;;;;4.75;3.67;;;;;;;20.60;59.29;99835.09;339112;28;4660;-60
2023/06/25 00:16:29;;;;;;;5.10;3.90;;;;;;;20.59;59.00;99831.59;337673;28;4613;-60
2023/06/25 00:16:41;;;;;;;5.13;3.83;;;;;;;20.61;59.12;99832.34;337865;28;17897;-59
2023/06/25 00:16:57;;;;;;;6.80;3.90;;;;;;;20.64;59.25;99833.91;336580;28;9093;-61
2023/06/25 00:17:09;;;;;;;6.83;3.90;;;;;;;20.64;59.09;99831.25;336600;28;18585;-61
2023/06/25 00:17:27;;;;;;;6.68;3.60;;;;;;;20.64;59.22;99832.09;339209;28;4691;-59
2023/06/25 00:17:39;;;;;;;6.25;3.33;;;;;;;20.65;59.42;99833.81;336798;28;18079;-60
2023/06/25 00:17:51;;;;;;;4.03;3.38;;;;;;;20.61;59.55;99832.34;339144;28;5161;-60
2023/06/25 00:18:04;;;;;;;4.68;3.63;;;;;;;20.60;59.73;99838.56;337192;28;17767;-60
2023/06/25 00:18:16;;;;;;;4.40;3.47;;;;;;;20.60;60.03;99832.44;339471;28;5270;-61
2023/06/25 00:18:28;;;;;;;4.50;3.50;;;;;;;20.59;59.85;99836.88;337899;28;17979;-60
2023/06/25 00:18:40;;;;;;;4.82;3.75;;;;;;;20.58;59.99;99835.16;340713;28;5123;-61
2023/06/25 00:18:52;;;;;;;5.10;3.90;;;;;;;20.55;59.76;99838.03;340300;28;4627;-60
2023/06/25 00:19:04;;;;;;;5.50;3.80;;;;;;;20.52;60.26;99839.09;337603;28;19287;-60
2023/06/25 00:19:17;;;;;;;5.25;3.78;;;;;;;20.53;60.03;99838.13;338548;28;4535;-60
2023/06/25 00:19:29;;;;;;;5.07;3.67;;;;;;;20.54;60.16;99838.97;336318;28;18192;-60
2023/06/25 00:19:41;;;;;;;5.50;3.70;;;;;;;20.54;59.84;99839.84;339175;28;4528;-60
2023/06/25 00:19:54;;;;;;;6.32;3.75;;;;;;;20.56;59.59;99834.41;337580;28;18308;-59
2023/06/25 00:20:08;;;;;;;7.18;3.75;;;;;;;20.53;59.17;99826.72;340413;28;5506;-60
2023/06/25 00:20:20;;;;;;;7.03;3.67;;;;;;;20.52;59.20;99835.59;336300;28;18903;-60
2023/06/25 00:20:32;;;;;;;5.05;3.78;;;;;;;20.50;59.92;99833.09;338895;28;5245;-60
2023/06/25 00:20:46;;;;;;;5.18;3.88;;;;;;;20.49;59.96;99835.81;336618;28;17851;-61
2023/06/25 00:20:58;;;;;;;5.97;3.83;;;;;;;20.49;59.88;99835.81;336280;28;16484;-60
2023/06/25 00:21:10;;;;;;;5.60;3.70;;;;;;;20.49;59.91;99836.66;339256;28;4673;-60
2023/06/25 00:21:22;;;;;;;5.28;3.55;;;;;;;20.50;59.74;99837.50;339111;28;5432;-60
2023/06/25 00:21:35;;;;;;;4.50;3.60;;;;;;;20.50;59.83;99835.72;336324;28;18414;-60
2023/06/25 00:21:48;;;;;;;4.38;3.55;;;;;;;20.51;59.63;99833.91;335869;28;11796;-60
2023/06/25 00:22:00;;;;;;;3.97;3.58;;;;;;;20.52;59.50;99836.47;338642;28;4679;-60
2023/06/25 00:22:12;;;;;;;4.35;3.67;;;;;;;20.51;59.56;99833.91;339227;28;5647;-60
2023/06/25 00:22:24;;;;;;;4.50;3.88;;;;;;;20.53;59.58;99842.56;337601;28;18253;-61
2023/06/25 00:22:36;;;;;;;4.47;3.88;;;;;;;20.52;59.56;99840.88;340386;28;4697;-60
2023/06/25 00:22:48;;;;;;;4.78;3.80;;;;;;;20.52;59.40;99840.88;337006;28;18254;-60
2023/06/25 00:23:18;;;;;;;4.55;3.38;;;;;;;20.50;59.46;99840.13;337389;28;17365;-61
2023/06/25 00:23:30;;;;;;;4.40;3.20;;;;;;;20.50;59.42;99837.50;340154;28;5897;-60
2023/06/25 00:23:44;;;;;;;4.82;3.45;;;;;;;20.48;59.59;99840.28;337918;28;18123;-61
2023/06/25 00:23:56;;;;;;;4.90;3.60;;;;;;;20.47;59.75;99833.28;338708;28;5483;-60
2023/06/25 00:24:08;;;;;;;5.35;3.58;;;;;;;20.45;59.64;99835.19;335082;28;19130;-60
2023/06/25 00:24:20;;;;;;;4.97;3.53;;;;;;;20.45;59.70;99837.00;338162;28;4657;-60
2023/06/25 00:24:32;;;;;;;4.68;3.50;;;;;;;20.44;60.03;99840.56;337579;28;12228;-61
2023/06/25 00:24:44;;;;;;;3.95;3.33;;;;;;;20.42;59.95;99835.41;335915;28;18441;-61
2023/06/25 00:24:56;;;;;;;3.88;3.40;;;;;;;20.43;60.24;99841.53;337997;28;7339;-61
2023/06/25 00:25:09;;;;;;;4.25;3.70;;;;;;;20.41;60.89;99832.88;335114;28;18533;-60
2023/06/25 00:25:26;;;;;;;4.90;3.90;;;;;;;20.41;60.48;99833.72;337993;28;4875;-60
2023/06/25 00:25:38;;;;;;;5.10;4.00;;;;;;;20.40;60.48;99831.19;337987;28;17851;-61
2023/06/25 00:25:50;;;;;;;6.00;4.03;;;;;;;20.39;60.53;99830.34;340471;28;4580;-60
2023/06/25 00:26:02;;;;;;;5.93;4.00;;;;;;;20.39;60.44;99834.78;339809;28;5018;-60
2023/06/25 00:26:14;;;;;;;6.28;3.90;;;;;;;20.38;60.43;99836.56;336851;28;18183;-61
2023/06/25 00:26:27;;;;;;;5.72;3.80;;;;;;;20.37;60.60;99841.97;339147;28;4847;-60
2023/06/25 00:26:45;;;;;;;5.47;3.78;;;;;;;20.34;60.45;99835.09;336771;28;18238;-60
2023/06/25 00:26:57;;;;;;;5.28;3.88;;;;;;;20.32;60.70;99835.22;337998;28;17675;-60
2023/06/25 00:27:09;;;;;;;4.53;3.60;;;;;;;20.31;60.57;99838.81;335939;28;17969;-61
2023/06/25 00:27:21;;;;;;;4.53;3.70;;;;;;;20.34;60.82;99837.72;339129;28;5257;-60
2023/06/25 00:27:33;;;;;;;4.43;3.80;;;;;;;20.35;60.80;99835.00;335253;28;11885;-60
2023/06/25 00:27:48;;;;;;;4.47;3.67;;;;;;;20.38;60.92;99833.09;338498;28;5170;-60
2023/06/25 00:28:00;;;;;;;5.43;3.70;;;;;;;20.38;60.49;99833.09;337311;28;18013;-60
2023/06/25 00:28:12;;;;;;;5.57;3.90;;;;;;;20.38;60.52;99836.56;338885;28;4687;-60
2023/06/25 00:28:24;;;;;;;4.97;3.90;;;;;;;20.36;60.78;99841.09;336594;28;17970;-61
2023/06/25 00:28:37;;;;;;;4.78;3.83;;;;;;;20.35;60.81;99837.63;338733;28;4699;-59
2023/06/25 00:28:50;;;;;;;4.78;3.75;;;;;;;20.35;60.87;99840.28;337117;28;18095;-61
2023/06/25 00:29:03;;;;;;;4.97;3.70;;;;;;;20.36;60.65;99835.81;339769;28;4670;-59
2023/06/25 00:29:15;;;;;;;4.10;3.40;;;;;;;20.37;60.56;99841.97;336798;28;18731;-60
2023/06/25 00:29:27;;;;;;;3.72;3.30;;;;;;;20.37;60.63;99839.34;338115;28;5040;-60
2023/06/25 00:29:39;;;;;;;4.50;3.50;;;;;;;20.38;60.67;99839.19;336696;28;18136;-60
2023/06/25 00:29:51;;;;;;;5.00;3.70;;;;;;;20.39;60.25;99840.06;339573;28;4588;-60
2023/06/25 00:30:03;;;;;;;5.18;3.55;;;;;;;20.37;60.42;99832.25;338881;28;11543;-61
2023/06/25 00:30:16;;;;;;;4.47;3.55;;;;;;;20.38;60.85;99839.19;338857;28;17420;-60
2023/06/25 00:30:28;;;;;;;5.18;3.70;;;;;;;20.37;61.07;99834.88;337981;28;12602;-60
2023/06/25 00:30:40;;;;;;;5.88;3.80;;;;;;;20.32;61.56;99840.50;339112;28;5341;-59
2023/06/25 00:30:52;;;;;;;6.28;3.70;;;;;;;20.33;60.96;99844.81;339916;28;5444;-60
2023/06/25 00:31:05;;;;;;;5.13;3.50;;;;;;;20.35;60.96;99842.91;337451;28;18174;-60
2023/06/25 00:31:17;;;;;;;6.20;3.60;;;;;;;20.37;60.97;99841.97;340320;28;4690;-60
2023/06/25 00:31:30;;;;;;;5.63;3.97;;;;;;;20.33;61.53;99834.25;336349;28;18173;-60
2023/06/25 00:31:42;;;;;;;5.03;3.90;;;;;;;20.35;61.11;99837.63;339838;28;4668;-61
2023/06/25 00:31:54;;;;;;;5.25;3.90;;;;;;;20.34;61.14;99841.25;336884;28;19233;-60
2023/06/25 00:32:07;;;;;;;5.20;3.90;;;;;;;20.32;60.91;99840.50;339632;28;4697;-60
2023/06/25 00:32:19;;;;;;;5.63;3.85;;;;;;;20.32;61.36;99832.59;337284;28;17056;-60
2023/06/25 00:32:31;;;;;;;5.45;3.80;;;;;;;20.34;61.47;99833.31;340680;28;4668;-60
2023/06/25 00:32:44;;;;;;;6.00;3.93;;;;;;;20.35;61.06;99835.00;336235;28;16494;-60
2023/06/25 00:32:56;;;;;;;5.55;4.07;;;;;;;20.35;60.94;99832.34;339574;28;4748;-60
2023/06/25 00:33:08;;;;;;;5.75;4.22;;;;;;;20.34;61.11;99830.69;335498;28;17038;-60
2023/06/25 00:33:23;;;;;;;8.33;4.53;;;;;;;20.36;61.26;99841.09;336351;28;16545;-58
2023/06/25 00:33:35;;;;;;;8.40;4.28;;;;;;;20.38;61.07;99833.91;338913;28;4668;-60
2023/06/25 00:33:49;;;;;;;5.53;3.80;;;;;;;20.39;61.08;99832.16;340015;28;5388;-59
2023/06/25 00:34:02;;;;;;;5.28;3.90;;;;;;;20.38;60.98;99833.09;337884;28;19061;-61
2023/06/25 00:34:14;;;;;;;4.70;3.92;;;;;;;20.15;60.62;99838.19;336998;28;17837;-60
2023/06/25 00:34:26;;;;;;;4.18;3.78;;;;;;;19.94;61.11;99830.81;340705;28;5445;-60
2023/06/25 00:34:41;;;;;;;4.20;3.80;;;;;;;19.68;61.95;99831.69;337208;28;4721;-61
2023/06/25 00:34:57;;;;;;;4.43;3.78;;;;;;;19.56;62.60;99831.59;336861;28;17929;-61
2023/06/25 00:35:10;;;;;;;5.05;3.88;;;;;;;19.69;62.54;99830.75;337691;28;16164;-60
2023/06/25 00:35:27;;;;;;;6.13;4.10;;;;;;;19.76;62.61;99826.81;339476;28;5197;-59
2023/06/25 00:36:06;;;;;;;6.60;4.10;;;;;;;19.75;60.81;99831.22;337479;28;17815;-60
2023/06/25 00:36:18;;;;;;;6.97;4.13;;;;;;;19.73;60.44;99827.81;335562;28;16603;-61
2023/06/25 00:36:36;;;;;;;6.38;3.95;;;;;;;19.80;60.38;99827.41;338342;28;5511;-61
2023/06/25 00:36:51;;;;;;;5.95;3.97;;;;;;;19.70;60.55;99828.03;336065;28;17687;-61
2023/06/25 00:37:15;;;;;;;6.57;3.95;;;;;;;19.60;60.11;99831.38;334820;28;16356;-61
2023/06/25 00:37:27;;;;;;;5.07;4.00;;;;;;;19.55;60.34;99823.78;335692;28;17522;-60
2023/06/25 00:37:40;;;;;;;7.30;4.22;;;;;;;19.55;60.07;99829.88;335932;28;18089;-60
2023/06/25 00:37:57;;;;;;;7.35;4.18;;;;;;;19.51;60.09;99822.28;338933;28;4673;-61
2023/06/25 00:38:10;;;;;;;5.07;4.00;;;;;;;19.54;60.09;99827.38;336525;28;18903;-61
2023/06/25 00:38:22;;;;;;;5.78;3.80;;;;;;;19.53;60.31;99829.13;340287;28;5167;-60
2023/06/25 00:38:38;;;;;;;5.70;3.97;;;;;;;19.53;60.14;99834.41;337476;28;18297;-61
2023/06/25 00:38:51;;;;;;;5.25;4.00;;;;;;;19.53;60.16;99826.50;334991;28;17902;-61
2023/06/25 00:39:04;;;;;;;5.82;3.92;;;;;;;19.54;60.17;99827.38;336390;28;5102;-61
2023/06/25 00:39:16;;;;;;;6.25;3.92;;;;;;;19.52;61.55;99824.81;336976;28;16809;-61
2023/06/25 00:39:29;;;;;;;5.43;3.90;;;;;;;19.49;62.29;99827.66;335792;28;11895;-61
2023/06/25 00:39:40;;;;;;;5.47;4.15;;;;;;;19.50;62.05;99832.00;339119;28;5380;-61
2023/06/25 00:39:53;;;;;;;5.18;4.22;;;;;;;19.50;62.01;99821.44;339026;28;4831;-61
2023/06/25 00:40:08;;;;;;;5.28;4.22;;;;;;;19.52;62.04;99824.81;335802;28;18254;-61
2023/06/25 00:40:20;;;;;;;5.05;4.07;;;;;;;19.56;61.78;99821.03;336035;28;17009;-61
2023/06/25 00:40:32;;;;;;;5.57;4.20;;;;;;;19.55;62.36;99824.59;338319;28;5900;-61
2023/06/25 00:40:44;;;;;;;6.50;4.32;;;;;;;19.60;61.74;99828.72;338105;28;18103;-61
2023/06/25 00:40:56;;;;;;;5.60;4.15;;;;;;;19.61;61.72;99827.78;339291;28;4591;-59
2023/06/25 00:41:10;;;;;;;4.78;4.18;;;;;;;19.63;61.83;99825.91;335971;28;11811;-61
2023/06/25 00:41:22;;;;;;;4.80;4.10;;;;;;;19.66;61.56;99826.53;338627;28;5173;-61
2023/06/25 00:41:34;;;;;;;5.28;4.00;;;;;;;19.69;61.57;99830.75;337280;28;18135;-60
2023/06/25 00:41:48;;;;;;;5.88;4.00;;;;;;;19.71;62.08;99824.44;338939;28;4587;-61
2023/06/25 00:42:00;;;;;;;5.95;4.00;;;;;;;19.74;62.02;99826.06;336112;28;18048;-61
2023/06/25 00:42:14;;;;;;;6.68;4.10;;;;;;;19.72;62.88;99817.41;337588;28;5273;-61
2023/06/25 00:42:26;;;;;;;6.35;4.10;;;;;;;19.68;63.33;99829.06;335463;28;18195;-60
2023/06/25 00:42:43;;;;;;;5.32;4.20;;;;;;;19.66;63.75;99826.53;339827;28;5167;-61
2023/06/25 00:42:58;;;;;;;5.00;4.40;;;;;;;19.58;64.15;99827.97;335993;28;17899;-61
2023/06/25 00:43:10;;;;;;;5.00;4.43;;;;;;;19.57;63.80;99821.88;336848;28;18688;-61
2023/06/25 00:43:22;;;;;;;5.10;4.30;;;;;;;19.60;63.53;99824.31;340210;28;5171;-59
2023/06/25 00:43:34;;;;;;;5.07;4.30;;;;;;;19.63;63.24;99825.91;336494;28;18111;-59
2023/06/25 00:43:46;;;;;;;5.63;4.43;;;;;;;19.64;63.40;99822.28;340193;28;4688;-60
2023/06/25 00:43:58;;;;;;;5.85;4.45;;;;;;;19.67;63.17;99827.38;338222;28;11836;-61
2023/06/25 00:44:10;;;;;;;6.03;4.45;;;;;;;19.70;63.24;99832.47;340490;28;5355;-61
2023/06/25 00:44:23;;;;;;;5.45;4.35;;;;;;;19.71;63.25;99823.63;340685;28;4498;-61
2023/06/25 00:44:40;;;;;;;5.13;4.28;;;;;;;19.67;62.94;99822.94;336407;28;18129;-61
2023/06/25 00:44:52;;;;;;;5.70;4.43;;;;;;;19.63;63.06;99832.00;335273;28;17774;-61
2023/06/25 00:45:06;;;;;;;6.22;4.40;;;;;;;19.64;63.13;99822.28;335285;28;5381;-61
2023/06/25 00:45:18;;;;;;;6.53;4.25;;;;;;;19.62;63.09;99818.91;338227;28;5323;-61
2023/06/25 00:45:30;;;;;;;6.22;4.10;;;;;;;19.65;62.80;99829.28;334394;28;17963;-60
2023/06/25 00:45:45;;;;;;;7.07;4.35;;;;;;;19.62;63.01;99818.91;339918;28;4717;-61
2023/06/25 00:45:57;;;;;;;6.70;4.47;;;;;;;19.63;63.38;99825.91;336761;28;18884;-61
2023/06/25 00:46:15;;;;;;;6.47;4.32;;;;;;;19.61;63.67;99823.34;337806;28;19419;-60
2023/06/25 00:46:28;;;;;;;6.18;4.10;;;;;;;19.65;62.97;99826.63;336483;28;17984;-61
2023/06/25 00:46:40;;;;;;;6.25;4.05;;;;;;;19.66;63.02;99820.41;336560;28;18036;-60
2023/06/25 00:46:59;;;;;;;6.03;4.07;;;;;;;19.69;62.92;99820.19;340583;28;5427;-61
2023/06/25 00:47:15;;;;;;;8.05;4.10;;;;;;;19.72;63.07;99820.03;334833;28;18722;-61
2023/06/25 00:47:27;;;;;;;8.80;4.30;;;;;;;19.74;62.74;99826.06;337278;28;18103;-61
2023/06/25 00:47:42;;;;;;;5.97;4.30;;;;;;;19.72;62.90;99817.41;334798;28;18138;-61
2023/06/25 00:47:55;;;;;;;7.10;4.60;;;;;;;19.72;62.77;99822.69;336021;28;18011;-61
2023/06/25 00:48:07;;;;;;;7.10;4.40;;;;;;;19.73;62.56;99827.00;337403;28;5409;-61
2023/06/25 00:48:21;;;;;;;6.40;4.32;;;;;;;19.78;62.59;99824.91;337288;28;18109;-61
2023/06/25 00:48:34;;;;;;;6.60;4.32;;;;;;;19.81;62.57;99822.03;336621;28;17312;-61
2023/06/25 00:48:47;;;;;;;6.57;4.40;;;;;;;19.81;62.65;99824.69;339007;28;5398;-60
2023/06/25 00:49:05;;;;;;;7.63;4.80;;;;;;;19.84;62.54;99823.59;336400;28;18031;-61
2023/06/25 00:49:17;;;;;;;7.43;4.70;;;;;;;19.87;62.46;99818.97;335915;28;17912;-61
2023/06/25 00:49:33;;;;;;;5.82;4.30;;;;;;;19.89;62.18;99816.25;336081;28;18376;-61
2023/06/25 00:49:46;;;;;;;6.30;4.47;;;;;;;19.88;62.42;99823.31;336538;28;18702;-61
2023/06/25 00:50:00;;;;;;;6.65;4.47;;;;;;;19.87;62.66;99818.97;337496;28;5477;-61
2023/06/25 00:50:12;;;;;;;5.63;4.35;;;;;;;19.78;62.97;99822.25;338503;28;4708;-60
2023/06/25 00:50:24;;;;;;;5.32;4.07;;;;;;;19.77;62.60;99823.19;336566;28;17891;-61
2023/06/25 00:50:36;;;;;;;5.47;4.20;;;;;;;19.77;62.53;99812.66;338248;28;4586;-61
2023/06/25 00:50:49;;;;;;;5.85;4.40;;;;;;;19.77;62.21;99823.19;336230;28;11635;-61
2023/06/25 00:51:01;;;;;;;5.93;4.30;;;;;;;19.78;62.58;99814.34;338390;28;5014;-61
2023/06/25 00:51:15;;;;;;;5.90;4.00;;;;;;;19.77;62.64;99817.09;335225;28;12156;-61
2023/06/25 00:51:27;;;;;;;6.45;4.15;;;;;;;19.78;62.19;99809.06;337334;28;5604;-60
2023/06/25 00:51:39;;;;;;;6.20;4.35;;;;;;;19.79;61.78;99816.03;334856;28;18440;-61
2023/06/25 00:51:51;;;;;;;6.18;4.50;;;;;;;19.80;61.69;99816.84;338279;28;4574;-61
2023/06/25 00:52:08;;;;;;;5.38;4.20;;;;;;;19.82;61.69;99821.09;336498;28;11329;-61
2023/06/25 00:52:20;;;;;;;5.97;4.32;;;;;;;19.83;61.70;99816.66;336282;28;18079;-61
2023/06/25 00:52:35;;;;;;;7.28;4.72;;;;;;;19.78;61.92;99819.63;335780;28;17686;-61
2023/06/25 00:52:49;;;;;;;6.80;4.60;;;;;;;19.75;62.06;99817.19;340527;28;4718;-61
2023/06/25 00:53:02;;;;;;;5.43;4.28;;;;;;;19.75;61.92;99815.38;337616;28;17832;-61
2023/06/25 00:53:15;;;;;;;5.15;4.10;;;;;;;19.70;62.65;99812.19;337757;28;15949;-60
2023/06/25 00:53:34;;;;;;;6.20;4.07;;;;;;;19.73;62.75;99816.44;340412;28;4682;-61
2023/06/25 00:53:46;;;;;;;7.70;4.30;;;;;;;19.76;63.05;99821.53;335705;28;17696;-61
2023/06/25 00:53:58;;;;;;;6.88;4.30;;;;;;;19.72;62.63;99814.78;337976;28;5360;-59
2023/06/25 00:54:10;;;;;;;6.82;4.40;;;;;;;19.75;62.38;99815.38;336366;28;18067;-61
2023/06/25 00:54:23;;;;;;;7.32;4.50;;;;;;;19.74;62.27;99811.06;339167;28;5188;-61
2023/06/25 00:54:40;;;;;;;7.55;4.50;;;;;;;19.77;62.87;99812.66;336046;28;18305;-61
2023/06/25 00:54:52;;;;;;;6.32;4.50;;;;;;;19.80;62.24;99812.44;336129;28;17875;-61
2023/06/25 00:55:04;;;;;;;5.90;4.38;;;;;;;19.81;62.21;99813.28;337190;28;12030;-62
2023/06/25 00:55:17;;;;;;;5.53;4.22;;;;;;;19.82;62.21;99810.56;338975;28;5555;-60
2023/06/25 00:55:29;;;;;;;5.55;4.18;;;;;;;19.84;62.59;99813.94;337170;28;18123;-61
2023/06/25 00:55:41;;;;;;;5.35;3.95;;;;;;;19.89;62.58;99814.44;339200;28;4616;-61
2023/06/25 00:55:53;;;;;;;6.25;4.00;;;;;;;19.88;62.73;99812.75;339841;28;4904;-60
2023/06/25 00:56:06;;;;;;;6.85;4.05;;;;;;;19.89;62.43;99805.69;338051;28;18242;-61
2023/06/25 00:56:28;;;;;;;6.95;4.10;;;;;;;19.89;62.13;99813.59;340178;28;5237;-61
2023/06/25 00:56:40;;;;;;;5.93;4.20;;;;;;;19.90;62.34;99813.50;335968;28;17070;-61
2023/06/25 00:56:53;;;;;;;6.75;4.53;;;;;;;19.88;62.08;99806.63;338875;28;4674;-61
2023/06/25 00:57:06;;;;;;;6.40;4.45;;;;;;;19.92;62.01;99814.25;337657;28;18146;-61
2023/06/25 00:57:18;;;;;;;5.70;4.45;;;;;;;19.91;62.07;99809.91;340090;28;4676;-60
2023/06/25 00:57:30;;;;;;;5.15;4.15;;;;;;;19.93;62.03;99808.00;336686;28;18351;-61
2023/06/25 00:57:45;;;;;;;5.03;3.97;;;;;;;19.95;61.85;99816.66;336663;28;17601;-61
2023/06/25 00:58:00;;;;;;;5.82;4.10;;;;;;;19.98;62.02;99812.97;336106;28;18137;-61
2023/06/25 00:58:13;;;;;;;5.40;4.13;;;;;;;19.99;62.42;99821.72;339372;28;5230;-60
2023/06/25 00:58:25;;;;;;;5.18;4.30;;;;;;;20.01;62.03;99810.13;336928;28;19144;-61
2023/06/25 00:58:38;;;;;;;5.07;4.20;;;;;;;20.03;62.04;99807.38;339533;28;4683;-61
2023/06/25 00:58:50;;;;;;;6.45;4.22;;;;;;;20.03;61.65;99813.50;337459;28;18942;-61
2023/06/25 00:59:03;;;;;;;7.03;4.45;;;;;;;19.94;61.50;99814.97;340168;28;4680;-61
2023/06/25 00:59:16;;;;;;;7.65;4.60;;;;;;;19.95;61.63;99810.53;337557;28;18330;-59
2023/06/25 00:59:30;;;;;;;7.07;4.40;;;;;;;19.94;61.79;99812.34;338879;28;5405;-60
2023/06/25 00:59:44;;;;;;;5.85;4.15;;;;;;;19.95;61.93;99813.19;337921;28;18089;-61
2023/06/25 00:59:57;;;;;;;6.65;4.40;;;;;;;19.91;61.86;99804.63;338781;28;18187;-60
2023/06/25 01:00:14;;;;;;;6.38;4.45;;;;;;;19.81;61.85;99808.84;338607;28;16483;-61
2023/06/25 01:00:28;;;;;;;5.80;4.40;;;;;;;19.86;62.36;99811.16;338781;28;18613;-61
2023/06/25 01:00:41;;;;;;;5.32;4.22;;;;;;;19.86;62.68;99806.75;336412;28;17949;-61
2023/06/25 01:00:56;;;;;;;5.75;4.15;;;;;;;19.86;62.27;99811.16;339193;28;5402;-60
2023/06/25 01:01:26;;;;;;;5.83;4.20;;;;;;;19.89;62.17;99803.88;337722;28;18041;-61
2023/06/25 01:01:48;;;;;;;5.95;4.00;;;;;;;19.91;61.76;99814.34;337346;28;17610;-61
2023/06/25 01:02:19;;;;;;;5.05;4.10;;;;;;;19.91;61.87;99819.63;335399;28;17582;-61
2023/06/25 01:02:46;;;;;;;5.30;4.20;;;;;;;19.95;62.14;99814.00;336216;28;17533;-60
2023/06/25 01:03:26;;;;;;;5.93;4.30;;;;;;;19.91;62.01;99809.91;336427;28;17233;-61
2023/06/25 01:03:44;;;;;;;4.70;4.20;;;;;;;19.96;61.49;99806.97;337961;28;18463;-61
2023/06/25 01:04:03;;;;;;;5.45;4.25;;;;;;;19.93;61.46;99813.28;337390;28;18641;-61
2023/06/25 01:04:25;;;;;;;6.65;4.30;;;;;;;19.94;61.30;99803.56;337698;28;17575;-61